Time;durP1;ratioP1;P1;durP2;ratioP2;P2;SDS_P1;SDS_P2;PMS_P1;PMS_P2;Temp;Humidity;BMP_temperature;BMP_pressure;BME280_temperature;BME280_humidity;BME280_pressure;Samples;Min_cycle;Max_cycle;Signal;HPM_P1;HPM_P2
2022/04/05 00:00:31;;;;;;;13.55;9.07;;;4.10;99.00;;;;;;5102648;28;20028;-83
2022/04/05 00:02:57;;;;;;;15.10;9.65;;;4.10;99.20;;;;;;5101533;28;20024;-84
2022/04/05 00:05:22;;;;;;;15.50;10.02;;;4.10;99.60;;;;;;5101869;28;20465;-82
2022/04/05 00:07:48;;;;;;;15.23;9.75;;;4.10;99.50;;;;;;5084644;28;20028;-84
2022/04/05 00:10:14;;;;;;;12.70;8.63;;;4.00;99.50;;;;;;5079377;28;20028;-84
2022/04/05 00:12:43;;;;;;;14.10;9.65;;;4.00;99.80;;;;;;5082523;28;20044;-84
2022/04/05 00:15:09;;;;;;;12.63;8.23;;;3.90;99.90;;;;;;5083664;28;20120;-83
2022/04/05 00:17:38;;;;;;;16.98;9.60;;;3.90;99.90;;;;;;5080962;28;20032;-83
2022/04/05 00:20:05;;;;;;;12.65;8.65;;;3.90;99.90;;;;;;5084151;28;20055;-84
2022/04/05 00:22:31;;;;;;;13.95;9.05;;;3.90;99.90;;;;;;5070703;28;20021;-81
2022/04/05 00:24:56;;;;;;;12.85;8.77;;;3.90;99.90;;;;;;5070536;28;20047;-84
2022/04/05 00:27:22;;;;;;;12.80;9.57;;;4.00;99.90;;;;;;5081807;28;20366;-84
2022/04/05 00:29:48;;;;;;;15.30;9.65;;;4.00;99.90;;;;;;5080559;28;20033;-82
2022/04/05 00:32:13;;;;;;;14.35;8.70;;;4.00;99.90;;;;;;5062070;28;20072;-84
2022/04/05 00:34:40;;;;;;;14.07;9.10;;;4.00;99.90;;;;;;5080429;28;20024;-83
2022/04/05 00:37:06;;;;;;;15.30;9.45;;;4.00;99.90;;;;;;5089954;28;20423;-82
2022/04/05 00:39:32;;;;;;;13.07;8.80;;;4.00;99.90;;;;;;5099326;28;20036;-83
2022/04/05 00:41:58;;;;;;;13.48;9.07;;;4.00;99.90;;;;;;5100894;28;20020;-84
2022/04/05 00:44:24;;;;;;;15.50;9.65;;;4.00;99.90;;;;;;5082343;28;20036;-83
2022/04/05 00:46:52;;;;;;;13.90;9.70;;;4.00;99.90;;;;;;5101104;28;20024;-83
2022/04/05 00:49:29;;;;;;;13.48;9.57;;;4.00;99.90;;;;;;5082178;28;20020;-82
2022/04/05 00:51:55;;;;;;;16.75;8.70;;;4.00;99.90;;;;;;5082441;28;20020;-84
2022/04/05 00:54:23;;;;;;;14.20;9.05;;;4.00;99.90;;;;;;5106809;28;20043;-83
2022/04/05 00:56:52;;;;;;;12.68;9.68;;;4.00;99.90;;;;;;5100439;28;20052;-82
2022/04/05 00:59:20;;;;;;;13.10;9.25;;;4.10;99.90;;;;;;5099608;28;20175;-83
2022/04/05 01:01:46;;;;;;;12.80;8.95;;;4.10;99.70;;;;;;5099364;28;20028;-83
2022/04/05 01:04:12;;;;;;;15.85;9.77;;;4.20;99.70;;;;;;5103873;28;20044;-82
2022/04/05 01:09:20;;;;;;;11.95;8.38;;;4.20;98.90;;;;;;5066414;28;20044;-81
2022/04/05 01:11:46;;;;;;;14.40;8.90;;;4.20;98.80;;;;;;5057878;28;20017;-80
2022/04/05 01:14:12;;;;;;;13.43;8.43;;;4.30;98.40;;;;;;5057098;28;20051;-81
2022/04/05 01:16:41;;;;;;;11.60;8.07;;;4.30;98.30;;;;;;5057350;28;20040;-81
2022/04/05 01:19:08;;;;;;;13.10;7.82;;;4.30;97.90;;;;;;5037509;28;20120;-81
2022/04/05 01:21:37;;;;;;;12.70;8.20;;;4.30;97.40;;;;;;5038474;28;20026;-81
2022/04/05 01:24:06;;;;;;;11.75;7.68;;;4.40;96.90;;;;;;5037842;28;20040;-80
2022/04/05 01:26:50;;;;;;;11.68;7.30;;;4.40;97.00;;;;;;5052638;28;20477;-81
2022/04/05 01:29:17;;;;;;;12.55;7.93;;;4.40;96.70;;;;;;5034766;28;20057;-80
2022/04/05 01:31:50;;;;;;;13.25;8.43;;;4.40;97.20;;;;;;5037263;28;20030;-79
2022/04/05 01:34:19;;;;;;;12.40;7.65;;;4.30;97.40;;;;;;5035256;28;20037;-79
2022/04/05 01:36:50;;;;;;;14.45;8.18;;;4.30;97.40;;;;;;5037478;28;20030;-79
2022/04/05 01:39:18;;;;;;;10.82;7.70;;;4.30;97.40;;;;;;5037837;28;20447;-80
2022/04/05 01:41:45;;;;;;;10.73;7.93;;;4.20;97.70;;;;;;5058835;28;20029;-79
2022/04/05 01:44:13;;;;;;;11.07;8.05;;;4.20;97.70;;;;;;5058857;28;20027;-79
2022/04/05 01:46:39;;;;;;;11.30;7.55;;;4.20;98.10;;;;;;5069931;28;20021;-79
2022/04/05 01:49:09;;;;;;;14.45;8.05;;;4.20;98.00;;;;;;5055937;28;20037;-79
2022/04/05 01:51:37;;;;;;;11.10;7.90;;;4.20;98.70;;;;;;5074125;28;20033;-80
2022/04/05 01:54:05;;;;;;;15.50;8.50;;;4.10;99.10;;;;;;5061134;28;20426;-79
2022/04/05 01:56:43;;;;;;;11.25;7.90;;;4.00;99.30;;;;;;5061389;28;20025;-80
2022/04/05 01:59:11;;;;;;;14.00;8.48;;;4.00;99.90;;;;;;5064136;28;20033;-79
2022/04/05 02:01:37;;;;;;;12.68;8.23;;;3.90;99.90;;;;;;5066505;28;20020;-78
2022/04/05 02:04:03;;;;;;;12.20;8.10;;;3.90;99.90;;;;;;5062558;28;20029;-80
2022/04/05 02:06:28;;;;;;;12.93;7.70;;;3.80;99.90;;;;;;5056694;28;20032;-79
2022/04/05 02:08:54;;;;;;;11.52;8.13;;;3.80;99.90;;;;;;5053111;28;20481;-79
2022/04/05 02:11:20;;;;;;;11.75;8.35;;;3.80;99.90;;;;;;5057046;28;20022;-80
2022/04/05 02:13:45;;;;;;;11.90;8.57;;;3.80;99.90;;;;;;5058484;28;20096;-81
2022/04/05 02:16:11;;;;;;;9.65;7.38;;;3.80;99.90;;;;;;5056163;28;20033;-80
2022/04/05 02:18:37;;;;;;;11.75;7.72;;;3.80;99.90;;;;;;5048857;28;20089;-79
2022/04/05 02:21:03;;;;;;;10.68;7.88;;;3.90;99.90;;;;;;5057466;28;20486;-80
2022/04/05 02:23:29;;;;;;;10.50;7.90;;;3.90;99.90;;;;;;5056293;28;20063;-79
2022/04/05 02:25:55;;;;;;;11.23;8.05;;;3.90;99.90;;;;;;5056613;28;20075;-80
2022/04/05 02:28:21;;;;;;;10.93;8.05;;;4.00;99.90;;;;;;5056247;28;20024;-80
2022/04/05 02:30:46;;;;;;;9.95;7.38;;;4.00;99.70;;;;;;5039174;28;20027;-80
2022/04/05 02:33:12;;;;;;;10.43;7.82;;;4.10;99.00;;;;;;5057670;28;20097;-80
2022/04/05 02:35:38;;;;;;;9.88;6.80;;;4.10;98.70;;;;;;5039518;28;20021;-80
2022/04/05 02:38:04;;;;;;;9.82;6.60;;;4.20;98.10;;;;;;5050966;28;20036;-80
2022/04/05 02:40:30;;;;;;;9.77;6.35;;;4.30;98.00;;;;;;5047343;28;20053;-80
2022/04/05 02:42:56;;;;;;;9.35;6.18;;;4.40;97.10;;;;;;5037598;28;20026;-81
2022/04/05 02:45:22;;;;;;;8.10;6.15;;;4.40;96.80;;;;;;5022468;28;20037;-80
2022/04/05 02:47:48;;;;;;;10.38;6.55;;;4.50;96.10;;;;;;5038110;28;20040;-80
2022/04/05 02:50:17;;;;;;;10.00;6.53;;;4.50;95.90;;;;;;5038416;28;20424;-79
2022/04/05 02:52:45;;;;;;;9.15;5.85;;;4.50;95.70;;;;;;5037870;28;20025;-80
2022/04/05 02:55:11;;;;;;;9.07;6.28;;;4.60;95.70;;;;;;5025766;28;20048;-80
2022/04/05 02:57:37;;;;;;;7.22;5.03;;;4.60;95.00;;;;;;5044400;28;20482;-80
2022/04/05 03:00:07;;;;;;;6.95;5.35;;;4.70;94.50;;;;;;5059311;28;20032;-80
2022/04/05 03:02:34;;;;;;;6.55;4.90;;;4.70;94.20;;;;;;5025657;28;20040;-81
2022/04/05 03:05:01;;;;;;;6.20;4.70;;;4.80;93.60;;;;;;5041595;28;20022;-80
2022/04/05 03:07:27;;;;;;;7.75;5.63;;;4.80;93.40;;;;;;5052900;28;20044;-79
2022/04/05 03:09:53;;;;;;;8.48;5.43;;;4.90;93.00;;;;;;5051048;28;20497;-79
2022/04/05 03:12:19;;;;;;;7.63;5.10;;;4.90;92.90;;;;;;5038361;28;20026;-80
2022/04/05 03:14:45;;;;;;;8.50;5.25;;;4.90;92.50;;;;;;5032546;28;20025;-81
2022/04/05 03:17:12;;;;;;;8.63;4.93;;;5.00;91.90;;;;;;5042771;28;20365;-80
2022/04/05 03:19:38;;;;;;;8.05;5.55;;;5.10;91.50;;;;;;5041421;28;20084;-80
2022/04/05 03:22:08;;;;;;;6.57;5.22;;;5.10;91.60;;;;;;5042691;28;20056;-81
2022/04/05 03:24:34;;;;;;;9.60;5.70;;;5.10;91.40;;;;;;5041553;28;20029;-80
2022/04/05 03:27:01;;;;;;;6.82;4.93;;;5.20;91.30;;;;;;5042173;28;20030;-81
2022/04/05 03:29:27;;;;;;;6.38;4.93;;;5.10;91.30;;;;;;5044111;28;20021;-80
2022/04/05 03:31:53;;;;;;;6.97;5.28;;;5.20;90.90;;;;;;5056973;28;20444;-80
2022/04/05 03:34:19;;;;;;;8.68;5.95;;;5.20;90.80;;;;;;5044188;28;20017;-80
2022/04/05 03:36:45;;;;;;;7.18;5.07;;;5.20;90.90;;;;;;5063772;28;20493;-80
2022/04/05 03:39:13;;;;;;;7.63;5.65;;;5.30;90.80;;;;;;5058401;28;20026;-81
2022/04/05 03:41:40;;;;;;;7.00;5.57;;;5.30;90.70;;;;;;5045127;28;20044;-81
2022/04/05 03:44:06;;;;;;;5.88;4.85;;;5.40;90.60;;;;;;5048011;28;20033;-81
2022/04/05 03:46:33;;;;;;;7.45;5.45;;;5.40;90.70;;;;;;5046879;28;20037;-80
2022/04/05 03:48:59;;;;;;;8.23;5.45;;;5.40;90.50;;;;;;5048626;28;20025;-81
2022/04/05 03:51:25;;;;;;;8.57;5.28;;;5.40;90.60;;;;;;5062616;28;20061;-81
2022/04/05 03:53:50;;;;;;;6.93;5.32;;;5.50;90.20;;;;;;5052529;28;20081;-79
2022/04/05 03:56:16;;;;;;;9.05;5.13;;;5.50;90.20;;;;;;5045462;28;20091;-80
2022/04/05 03:58:42;;;;;;;6.75;5.20;;;5.60;90.00;;;;;;5044013;28;20049;-80
2022/04/05 04:01:07;;;;;;;7.47;5.45;;;5.60;90.10;;;;;;5023207;28;20036;-80
2022/04/05 04:03:34;;;;;;;10.73;5.57;;;5.50;90.30;;;;;;5043492;28;20025;-81
2022/04/05 04:06:00;;;;;;;8.20;5.25;;;5.50;90.90;;;;;;5045140;28;20204;-80
2022/04/05 04:08:26;;;;;;;7.45;5.78;;;5.50;91.00;;;;;;5040917;28;20061;-80
2022/04/05 04:10:52;;;;;;;7.68;5.93;;;5.50;91.20;;;;;;5060140;28;20017;-79
2022/04/05 04:13:18;;;;;;;8.10;4.95;;;5.50;91.60;;;;;;5059367;28;20023;-80
2022/04/05 04:15:44;;;;;;;8.18;5.13;;;5.50;92.20;;;;;;5042060;28;20033;-80
2022/04/05 04:18:10;;;;;;;7.30;5.22;;;5.40;92.50;;;;;;5061328;28;20099;-80
2022/04/05 04:20:38;;;;;;;7.63;5.03;;;5.30;92.20;;;;;;5060103;28;20024;-79
2022/04/05 04:23:05;;;;;;;7.75;5.20;;;5.30;92.50;;;;;;5042218;28;20029;-80
2022/04/05 04:25:31;;;;;;;8.35;5.93;;;5.30;92.50;;;;;;5061315;28;20029;-80
2022/04/05 04:27:57;;;;;;;7.38;5.03;;;5.30;92.20;;;;;;5059550;28;20394;-79
2022/04/05 04:30:23;;;;;;;7.78;5.15;;;5.30;92.30;;;;;;5061024;28;20047;-80
2022/04/05 04:32:49;;;;;;;6.95;4.88;;;5.40;92.20;;;;;;5046158;28;20028;-80
2022/04/05 04:35:15;;;;;;;6.43;5.05;;;5.40;92.20;;;;;;5063803;28;20054;-79
2022/04/05 04:37:41;;;;;;;8.63;4.90;;;5.40;91.80;;;;;;5073209;28;20029;-79
2022/04/05 04:40:07;;;;;;;8.02;5.45;;;5.40;91.60;;;;;;5062646;28;20030;-80
2022/04/05 04:42:34;;;;;;;7.22;5.18;;;5.40;91.60;;;;;;5065481;28;20097;-80
2022/04/05 04:45:00;;;;;;;6.65;5.00;;;5.40;91.40;;;;;;5070215;28;20029;-81
2022/04/05 04:47:26;;;;;;;6.35;4.65;;;5.50;91.20;;;;;;5064417;28;20021;-80
2022/04/05 04:49:51;;;;;;;7.70;5.25;;;5.50;91.20;;;;;;5061558;28;20025;-78
2022/04/05 04:52:17;;;;;;;7.40;5.45;;;5.50;91.30;;;;;;5062427;28;20407;-81
2022/04/05 04:54:43;;;;;;;10.85;5.03;;;5.50;91.80;;;;;;5049540;28;20042;-79
2022/04/05 04:57:08;;;;;;;10.00;5.50;;;5.40;91.70;;;;;;5045082;28;20104;-79
2022/04/05 04:59:34;;;;;;;6.75;5.05;;;5.40;91.40;;;;;;5048424;28;20081;-80
2022/04/05 05:02:00;;;;;;;7.30;4.90;;;5.40;91.40;;;;;;5035437;28;20029;-80
2022/04/05 05:04:26;;;;;;;6.90;5.03;;;5.50;91.60;;;;;;5061355;28;20036;-79
2022/04/05 05:06:53;;;;;;;7.80;5.10;;;5.50;91.70;;;;;;5061489;28;20032;-80
2022/04/05 05:09:19;;;;;;;7.65;5.72;;;5.50;91.50;;;;;;5055371;28;20040;-79
2022/04/05 05:11:45;;;;;;;8.85;5.65;;;5.50;91.40;;;;;;5053757;28;20017;-77
2022/04/05 05:14:11;;;;;;;7.32;5.22;;;5.50;91.50;;;;;;5042708;28;20016;-81
2022/04/05 05:16:37;;;;;;;7.20;4.97;;;5.50;91.80;;;;;;5061744;28;20085;-81
2022/04/05 05:19:04;;;;;;;8.23;5.43;;;5.50;92.00;;;;;;5045465;28;20038;-80
2022/04/05 05:21:30;;;;;;;7.72;4.80;;;5.50;91.90;;;;;;5026554;28;20036;-82
2022/04/05 05:23:57;;;;;;;9.77;6.03;;;5.50;92.10;;;;;;5052902;28;20024;-80
2022/04/05 05:26:23;;;;;;;6.80;5.30;;;5.40;91.60;;;;;;5061560;28;20033;-80
2022/04/05 05:28:49;;;;;;;7.90;5.60;;;5.50;91.70;;;;;;5047493;28;20081;-80
2022/04/05 05:31:14;;;;;;;7.38;5.47;;;5.50;91.40;;;;;;5067806;28;20013;-81
2022/04/05 05:33:40;;;;;;;7.95;5.63;;;5.60;91.50;;;;;;5063534;28;20067;-80
2022/04/05 05:36:06;;;;;;;7.25;5.55;;;5.60;91.60;;;;;;5061141;28;20422;-81
2022/04/05 05:38:32;;;;;;;7.05;5.13;;;5.60;91.50;;;;;;5035108;28;20505;-80
2022/04/05 05:40:58;;;;;;;8.30;5.50;;;5.60;91.30;;;;;;5056572;28;20036;-81
2022/04/05 05:43:24;;;;;;;5.90;4.55;;;5.70;91.30;;;;;;5062884;28;20032;-80
2022/04/05 05:45:50;;;;;;;7.32;5.25;;;5.70;91.40;;;;;;5047597;28;20112;-81
2022/04/05 05:48:16;;;;;;;8.80;5.30;;;5.80;91.60;;;;;;5045276;28;20025;-80
2022/04/05 05:50:42;;;;;;;9.70;4.88;;;5.80;91.20;;;;;;5053903;28;20088;-81
2022/04/05 05:53:07;;;;;;;7.97;5.60;;;5.90;91.00;;;;;;5076600;28;20056;-80
2022/04/05 05:55:35;;;;;;;9.93;5.88;;;5.90;91.10;;;;;;5077608;28;20013;-81
2022/04/05 05:58:03;;;;;;;6.22;4.57;;;5.90;91.30;;;;;;5076282;28;20076;-82
2022/04/05 06:00:29;;;;;;;7.82;5.00;;;5.90;91.50;;;;;;5076930;28;20088;-82
2022/04/05 06:03:01;;;;;;;6.38;4.65;;;5.90;91.50;;;;;;5059912;28;20036;-81
2022/04/05 06:05:28;;;;;;;7.40;5.03;;;5.90;91.90;;;;;;5077078;28;20116;-80
2022/04/05 06:07:55;;;;;;;8.65;5.43;;;5.90;91.90;;;;;;5076008;28;20032;-81
2022/04/05 06:10:22;;;;;;;8.93;5.53;;;5.90;92.00;;;;;;5059810;28;20044;-81
2022/04/05 06:12:50;;;;;;;7.55;5.07;;;5.90;92.00;;;;;;5075955;28;20057;-81
2022/04/05 06:15:25;;;;;;;8.23;5.57;;;5.90;92.40;;;;;;5076980;28;20028;-82
2022/04/05 06:17:51;;;;;;;7.63;4.60;;;5.80;92.70;;;;;;5076635;28;20028;-82
2022/04/05 06:20:19;;;;;;;8.35;5.63;;;5.80;92.90;;;;;;5075891;28;20032;-82
2022/04/05 06:22:53;;;;;;;9.85;6.10;;;5.70;93.60;;;;;;5077070;28;20040;-82
2022/04/05 06:25:24;;;;;;;7.30;5.40;;;5.70;93.80;;;;;;5059528;28;20052;-79
2022/04/05 06:27:50;;;;;;;8.90;5.77;;;5.70;94.00;;;;;;5056065;28;20100;-80
2022/04/05 06:30:17;;;;;;;11.95;6.45;;;5.60;94.30;;;;;;5075584;28;20267;-80
2022/04/05 06:32:43;;;;;;;10.88;6.22;;;5.60;94.80;;;;;;5076323;28;20254;-83
2022/04/05 06:35:10;;;;;;;8.48;5.93;;;5.50;94.90;;;;;;5077486;28;20152;-80
2022/04/05 06:37:37;;;;;;;10.15;6.60;;;5.50;95.70;;;;;;5052082;28;20056;-79
2022/04/05 06:40:05;;;;;;;10.48;6.20;;;5.50;96.10;;;;;;5064814;28;20167;-81
2022/04/05 06:42:31;;;;;;;9.27;6.88;;;5.60;96.40;;;;;;5045553;28;20351;-81
2022/04/05 06:44:57;;;;;;;10.52;7.07;;;5.60;96.60;;;;;;5045304;28;20053;-81
2022/04/05 06:47:22;;;;;;;7.70;5.75;;;5.70;96.70;;;;;;5063323;28;20021;-80
2022/04/05 06:49:48;;;;;;;9.95;6.65;;;5.70;97.10;;;;;;5063544;28;20025;-81
2022/04/05 06:52:14;;;;;;;10.25;6.70;;;5.70;97.20;;;;;;5064017;28;20025;-81
2022/04/05 06:54:40;;;;;;;13.15;6.80;;;5.70;97.50;;;;;;5045616;28;20088;-79
2022/04/05 06:57:06;;;;;;;9.55;6.30;;;5.70;98.00;;;;;;5064523;28;20055;-81
2022/04/05 06:59:32;;;;;;;11.43;6.32;;;5.70;97.80;;;;;;5064505;28;20516;-83
2022/04/05 07:01:57;;;;;;;9.65;7.03;;;5.70;98.10;;;;;;5071258;28;20029;-79
2022/04/05 07:04:23;;;;;;;11.90;5.80;;;5.80;97.80;;;;;;5066407;28;20048;-83
2022/04/05 07:06:49;;;;;;;9.02;6.18;;;5.90;97.80;;;;;;5064680;28;20078;-81
2022/04/05 07:09:14;;;;;;;8.82;6.00;;;6.00;97.50;;;;;;5044592;28;20473;-82
2022/04/05 07:11:40;;;;;;;9.20;6.15;;;6.20;97.30;;;;;;5043362;28;20027;-81
2022/04/05 07:14:06;;;;;;;10.27;6.88;;;6.30;97.20;;;;;;5043829;28;20426;-82
2022/04/05 07:16:32;;;;;;;8.82;6.22;;;6.40;96.20;;;;;;5042165;28;20030;-82
2022/04/05 07:18:58;;;;;;;7.65;5.05;;;6.50;96.00;;;;;;5046294;28;20026;-81
2022/04/05 07:21:23;;;;;;;9.30;5.40;;;6.60;95.80;;;;;;5042645;28;20022;-80
2022/04/05 07:23:50;;;;;;;6.90;5.40;;;6.70;95.20;;;;;;5042148;28;20025;-81
2022/04/05 07:26:15;;;;;;;8.23;5.60;;;6.80;95.30;;;;;;5039196;28;20029;-78
2022/04/05 07:28:41;;;;;;;8.02;5.35;;;6.80;94.50;;;;;;5036862;28;20098;-78
2022/04/05 07:31:07;;;;;;;7.60;5.90;;;6.80;94.20;;;;;;5038566;28;20022;-79
2022/04/05 07:33:33;;;;;;;7.05;5.00;;;6.80;94.50;;;;;;5042001;28;20455;-79
2022/04/05 07:35:59;;;;;;;8.55;5.72;;;6.80;94.30;;;;;;5039706;28;20022;-77
2022/04/05 07:38:25;;;;;;;6.63;5.03;;;6.90;94.50;;;;;;5039671;28;20040;-80
2022/04/05 07:41:13;;;;;;;7.68;5.47;;;7.00;93.80;;;;;;5030162;28;20068;-81
2022/04/05 07:43:42;;;;;;;8.30;5.35;;;7.10;93.30;;;;;;5037849;28;20029;-81
2022/04/05 07:46:12;;;;;;;6.78;4.93;;;7.20;93.40;;;;;;5073230;28;20029;-80
2022/04/05 07:48:39;;;;;;;9.73;6.00;;;7.20;93.50;;;;;;5067983;28;20035;-81
2022/04/05 07:51:05;;;;;;;6.22;5.30;;;7.20;93.50;;;;;;5052861;28;20049;-81
2022/04/05 07:53:31;;;;;;;8.82;5.53;;;7.30;92.90;;;;;;5068784;28;20073;-81
2022/04/05 07:55:57;;;;;;;5.60;5.00;;;7.40;92.30;;;;;;5069707;28;20024;-80
2022/04/05 07:58:24;;;;;;;7.07;5.53;;;7.50;92.60;;;;;;5077558;28;20033;-80
2022/04/05 08:00:49;;;;;;;7.22;5.35;;;7.50;92.40;;;;;;5071419;28;20032;-83
2022/04/05 08:03:17;;;;;;;52.15;34.60;;;7.50;92.60;;;;;;5069377;28;20131;-81
2022/04/05 08:05:43;;;;;;;15.52;10.93;;;7.60;92.10;;;;;;5065722;28;20528;-81
2022/04/05 08:08:09;;;;;;;28.52;17.85;;;7.70;92.20;;;;;;5067858;28;20036;-81
2022/04/05 08:10:35;;;;;;;27.27;17.50;;;7.80;91.60;;;;;;5030904;28;20072;-81
2022/04/05 08:13:01;;;;;;;28.23;17.30;;;7.90;91.40;;;;;;5069201;28;20033;-82
2022/04/05 08:15:27;;;;;;;42.22;23.50;;;8.10;91.70;;;;;;5069038;28;20390;-81
2022/04/05 08:17:53;;;;;;;57.13;29.85;;;8.30;90.60;;;;;;5066017;28;20029;-81
2022/04/05 08:20:20;;;;;;;20.42;12.65;;;8.40;90.30;;;;;;5075332;28;20039;-81
2022/04/05 08:22:47;;;;;;;21.10;10.85;;;8.30;90.80;;;;;;5072783;28;20060;-82
2022/04/05 08:25:15;;;;;;;14.52;8.70;;;8.00;91.10;;;;;;5068370;28;20029;-80
2022/04/05 08:27:45;;;;;;;7.15;5.75;;;7.80;92.20;;;;;;5066941;28;20036;-80
2022/04/05 08:30:15;;;;;;;7.53;5.00;;;7.60;92.20;;;;;;5049824;28;20482;-81
2022/04/05 08:32:42;;;;;;;5.75;4.45;;;7.40;93.20;;;;;;5074038;28;20040;-81
2022/04/05 08:35:10;;;;;;;12.90;4.88;;;7.30;93.60;;;;;;5069940;28;20052;-80
2022/04/05 08:37:36;;;;;;;5.05;3.92;;;7.30;93.70;;;;;;5078049;28;20101;-81
2022/04/05 08:40:06;;;;;;;5.43;4.43;;;7.20;93.80;;;;;;5098603;28;20032;-82
2022/04/05 08:42:33;;;;;;;7.63;4.22;;;7.20;93.80;;;;;;5081054;28;20025;-82
2022/04/05 08:45:04;;;;;;;6.05;3.67;;;7.20;93.70;;;;;;5098700;28;20028;-81
2022/04/05 08:47:32;;;;;;;6.00;4.03;;;7.20;94.20;;;;;;5096767;28;20075;-80
2022/04/05 08:49:58;;;;;;;5.80;4.45;;;7.20;94.20;;;;;;5096868;28;20036;-80
2022/04/05 08:52:23;;;;;;;5.72;3.47;;;7.20;94.10;;;;;;5079357;28;20032;-80
2022/04/05 08:54:49;;;;;;;5.32;4.07;;;7.20;94.60;;;;;;5097685;28;20046;-82
2022/04/05 08:57:16;;;;;;;7.43;4.30;;;7.20;95.00;;;;;;5096962;28;20092;-79
2022/04/05 08:59:41;;;;;;;5.40;4.20;;;7.30;94.80;;;;;;5079758;28;20063;-81
2022/04/05 09:02:07;;;;;;;6.22;4.03;;;7.40;94.80;;;;;;5090929;28;20028;-81
2022/04/05 09:04:34;;;;;;;7.38;4.65;;;7.50;94.70;;;;;;5085024;28;20029;-81
2022/04/05 09:07:23;;;;;;;6.07;4.07;;;7.60;94.00;;;;;;5084182;28;20599;-80
2022/04/05 09:10:09;;;;;;;8.88;5.15;;;7.70;93.80;;;;;;5055871;28;20032;-81
2022/04/05 09:12:51;;;;;;;8.10;5.60;;;7.80;93.50;;;;;;5047693;28;20354;-78
2022/04/05 09:25:27;;;;;;;2.90;2.55;;;8.10;93.00;;;;;;5066676;28;20044;-82
2022/04/05 09:27:55;;;;;;;3.20;2.78;;;8.10;92.90;;;;;;5048084;28;20029;-84
2022/04/05 09:30:31;;;;;;;7.78;2.70;;;8.10;93.00;;;;;;5065403;28;20104;-81
2022/04/05 09:32:57;;;;;;;3.15;2.70;;;8.30;93.00;;;;;;5065075;28;20521;-82
2022/04/05 09:35:30;;;;;;;4.25;3.17;;;8.30;92.20;;;;;;5066096;28;20032;-80
2022/04/05 09:38:17;;;;;;;4.35;2.72;;;8.30;92.50;;;;;;5065388;28;20045;-81
2022/04/05 09:40:44;;;;;;;5.30;2.70;;;8.40;92.80;;;;;;5063754;28;20054;-81
2022/04/05 09:43:14;;;;;;;3.67;2.55;;;8.50;92.40;;;;;;5064628;28;20025;-80
2022/04/05 09:46:02;;;;;;;6.35;2.80;;;8.50;92.20;;;;;;5065590;28;20036;-80
2022/04/05 09:48:31;;;;;;;4.35;2.75;;;8.60;92.40;;;;;;5048269;28;20032;-81
2022/04/05 09:51:08;;;;;;;3.90;2.78;;;8.60;92.30;;;;;;5047806;28;20021;-81
2022/04/05 09:53:39;;;;;;;4.90;3.10;;;8.70;92.00;;;;;;5065247;28;20424;-80
2022/04/05 09:56:14;;;;;;;3.10;2.45;;;8.70;91.70;;;;;;5065898;28;20029;-81
2022/04/05 09:59:03;;;;;;;7.18;2.78;;;8.60;91.90;;;;;;5048643;28;20059;-82
2022/04/05 10:01:34;;;;;;;3.75;2.70;;;8.60;92.50;;;;;;5056972;28;20036;-82
2022/04/05 10:04:05;;;;;;;5.47;3.63;;;8.60;92.40;;;;;;5075560;28;20068;-82
2022/04/05 10:06:33;;;;;;;2.97;2.75;;;8.60;92.30;;;;;;5051745;28;20084;-81
2022/04/05 10:09:01;;;;;;;5.07;2.72;;;8.60;92.50;;;;;;5043509;28;20049;-80
2022/04/05 10:11:29;;;;;;;7.45;2.88;;;8.60;92.60;;;;;;5065062;28;20032;-81
2022/04/05 10:13:57;;;;;;;4.32;3.08;;;8.70;92.70;;;;;;5047312;28;20021;-83
2022/04/05 10:16:25;;;;;;;4.45;2.85;;;8.80;92.30;;;;;;5066464;28;20021;-81
2022/04/05 10:18:52;;;;;;;3.42;2.40;;;9.00;92.20;;;;;;5065075;28;20025;-81
2022/04/05 10:21:20;;;;;;;3.65;2.70;;;9.00;92.20;;;;;;5071373;28;20021;-82
2022/04/05 10:23:47;;;;;;;4.63;2.80;;;9.10;92.30;;;;;;5054377;28;20024;-83
2022/04/05 10:26:18;;;;;;;4.63;2.58;;;9.20;92.10;;;;;;5074774;28;20028;-82
2022/04/05 10:28:46;;;;;;;3.72;2.65;;;9.20;91.80;;;;;;5067610;28;20073;-83
2022/04/05 10:31:25;;;;;;;4.43;3.28;;;9.20;91.10;;;;;;5047256;28;20044;-83
2022/04/05 10:34:04;;;;;;;3.78;2.67;;;9.20;91.20;;;;;;5070337;28;20041;-83
2022/04/05 10:36:32;;;;;;;4.03;2.70;;;9.20;90.70;;;;;;5072091;28;20012;-83
2022/04/05 10:39:19;;;;;;;3.75;2.75;;;9.30;90.60;;;;;;5070128;28;20052;-80
2022/04/05 10:42:15;;;;;;;3.25;2.78;;;9.30;90.60;;;;;;5054506;28;20126;-82
2022/04/05 10:44:53;;;;;;;5.50;3.25;;;9.40;90.70;;;;;;5075299;28;20017;-82
2022/04/05 10:47:20;;;;;;;8.38;5.82;;;9.40;90.30;;;;;;5071163;28;20025;-83
2022/04/05 10:49:51;;;;;;;6.05;3.70;;;9.40;89.70;;;;;;5069795;28;20059;-82
2022/04/05 10:52:26;;;;;;;5.23;3.43;;;9.40;90.20;;;;;;5069728;28;20018;-82
2022/04/05 10:55:08;;;;;;;7.22;3.92;;;9.30;90.60;;;;;;5069735;28;20023;-83
2022/04/05 10:57:39;;;;;;;9.25;7.80;;;9.40;90.60;;;;;;5070637;28;20025;-82
2022/04/05 11:00:18;;;;;;;14.15;7.15;;;9.50;90.90;;;;;;5048700;28;20119;-83
2022/04/05 11:03:05;;;;;;;5.03;3.92;;;9.60;90.80;;;;;;5068456;28;20028;-83
2022/04/05 11:05:41;;;;;;;5.20;3.65;;;9.60;90.60;;;;;;5071297;28;20060;-82
2022/04/05 11:08:12;;;;;;;6.97;3.30;;;9.60;90.90;;;;;;5069904;28;20036;-83
2022/04/05 11:10:41;;;;;;;3.33;2.88;;;9.50;91.20;;;;;;5075195;28;20006;-83
2022/04/05 11:13:29;;;;;;;3.55;3.00;;;9.50;91.70;;;;;;5075047;28;20052;-84
2022/04/05 11:15:57;;;;;;;4.88;3.25;;;9.50;91.80;;;;;;5075768;28;20021;-83
2022/04/05 11:18:29;;;;;;;6.35;3.05;;;9.50;92.00;;;;;;5074151;28;20548;-83
2022/04/05 11:20:57;;;;;;;6.32;3.60;;;9.50;91.60;;;;;;5077645;28;20040;-83
2022/04/05 11:23:46;;;;;;;6.53;3.35;;;9.60;91.80;;;;;;5057899;28;20017;-83
2022/04/05 11:26:28;;;;;;;5.57;3.45;;;9.60;91.60;;;;;;5070782;28;20056;-84
2022/04/05 11:28:58;;;;;;;5.38;2.67;;;9.60;91.40;;;;;;5059768;28;20020;-82
2022/04/05 11:31:42;;;;;;;4.75;2.65;;;9.60;91.40;;;;;;5075980;28;20047;-82
2022/04/05 11:34:37;;;;;;;4.45;3.13;;;9.60;91.80;;;;;;5069690;28;20068;-83
2022/04/05 11:37:06;;;;;;;4.18;3.17;;;9.60;92.00;;;;;;5055838;28;20029;-82
2022/04/05 11:39:36;;;;;;;3.65;2.85;;;9.70;92.40;;;;;;5067324;28;20036;-83
2022/04/05 11:42:02;;;;;;;4.28;2.88;;;9.70;92.50;;;;;;5071549;28;20051;-82
2022/04/05 11:44:28;;;;;;;5.80;3.10;;;9.80;92.00;;;;;;5071639;28;20120;-83
2022/04/05 11:46:58;;;;;;;6.88;3.40;;;9.90;91.50;;;;;;5070480;28;20037;-82
2022/04/05 11:49:24;;;;;;;4.00;3.05;;;10.00;91.60;;;;;;5071848;28;20055;-82
2022/04/05 11:51:51;;;;;;;4.88;4.15;;;10.00;91.70;;;;;;5068907;28;20029;-82
2022/04/05 11:54:27;;;;;;;6.90;6.13;;;10.00;90.80;;;;;;5067900;28;20055;-83
2022/04/05 11:56:54;;;;;;;9.50;7.80;;;10.00;91.00;;;;;;5068158;28;20024;-83
2022/04/05 11:59:26;;;;;;;18.88;14.77;;;10.10;91.00;;;;;;5071860;28;20025;-83
2022/04/05 12:01:52;;;;;;;15.07;9.93;;;10.10;90.90;;;;;;5072342;28;20071;-83
2022/04/05 12:04:22;;;;;;;14.77;10.60;;;10.20;90.60;;;;;;5072333;28;20025;-84
2022/04/05 12:06:57;;;;;;;14.90;10.63;;;10.30;90.80;;;;;;5075265;28;20029;-83
2022/04/05 12:09:24;;;;;;;21.63;14.05;;;10.40;90.20;;;;;;5054378;28;20036;-83
2022/04/05 12:11:51;;;;;;;12.10;7.72;;;10.50;90.30;;;;;;5071685;28;20027;-82
2022/04/05 12:14:22;;;;;;;18.17;12.00;;;10.50;89.80;;;;;;5052324;28;20017;-82
2022/04/05 12:16:57;;;;;;;16.30;12.32;;;10.40;89.90;;;;;;5063690;28;20032;-83
2022/04/05 12:19:28;;;;;;;22.27;14.73;;;10.30;89.50;;;;;;5068149;28;20040;-83
2022/04/05 12:21:56;;;;;;;9.13;6.90;;;10.20;90.20;;;;;;5068172;28;20136;-83
2022/04/05 12:24:23;;;;;;;4.25;3.63;;;10.20;90.70;;;;;;5050845;28;20024;-83
2022/04/05 12:26:49;;;;;;;7.00;3.50;;;10.30;90.40;;;;;;5051654;28;20052;-83
2022/04/05 12:29:15;;;;;;;4.47;2.97;;;10.40;90.50;;;;;;5051814;28;20096;-82
2022/04/05 12:31:41;;;;;;;5.45;2.72;;;10.40;90.20;;;;;;5052654;28;20025;-82
2022/04/05 12:34:13;;;;;;;4.07;2.40;;;10.50;90.30;;;;;;5071938;28;20057;-82
2022/04/05 12:36:40;;;;;;;6.25;4.30;;;10.50;90.50;;;;;;5061071;28;20478;-82
2022/04/05 12:39:15;;;;;;;5.78;3.28;;;10.60;90.50;;;;;;5061592;28;20069;-83
2022/04/05 12:41:41;;;;;;;2.97;2.38;;;10.80;90.30;;;;;;5057768;28;20022;-82
2022/04/05 12:44:11;;;;;;;6.25;3.40;;;11.00;89.60;;;;;;5052371;28;20026;-83
2022/04/05 12:46:50;;;;;;;3.05;2.13;;;11.10;88.60;;;;;;5030479;28;20018;-82
2022/04/05 12:49:31;;;;;;;4.13;2.00;;;11.20;88.20;;;;;;5064948;28;20500;-82
2022/04/05 12:52:14;;;;;;;2.88;2.35;;;11.50;88.50;;;;;;5051022;28;20034;-83
2022/04/05 12:54:53;;;;;;;2.83;2.25;;;11.80;87.50;;;;;;5052194;28;20363;-83
2022/04/05 12:57:32;;;;;;;4.00;2.53;;;12.20;85.90;;;;;;5051450;28;20021;-83
2022/04/05 13:00:18;;;;;;;2.83;2.50;;;12.50;85.30;;;;;;5070608;28;20044;-83
2022/04/05 13:02:55;;;;;;;5.30;2.78;;;12.70;83.70;;;;;;5069039;28;20057;-82
2022/04/05 13:08:13;;;;;;;5.78;2.00;;;12.60;81.50;;;;;;5063071;28;20020;-82
2022/04/05 13:10:45;;;;;;;4.25;1.83;;;12.40;81.80;;;;;;5059219;28;20049;-83
2022/04/05 13:13:16;;;;;;;4.30;2.47;;;12.10;84.30;;;;;;5073552;28;20025;-83
2022/04/05 13:15:42;;;;;;;5.88;2.45;;;11.80;85.70;;;;;;5068086;28;20055;-83